Deunquat, Ohio
Current Conditions -  °F | °C
As of 2:53 AM on Tuesday 21 Oct 2014 (Local Time) from KMNN Reporting Station
Haze Haze  
Wind Chill: 10°   Ceiling: 1600
Heat Index: 10°   Visibility: 3mi
Dew Point:   Wind: 8mph
Humidity: 89%   Direction: 300°WNW
Pressure: 29.88"   Gusts: NA
Location:  40.948°N, 83.1346°W
Report Text: KMNN 210653Z AUTO 30007KT 3SM BR OVC016 10/08 A2988 RMK AO2 SLP121 T01000083 TSNO
Loading
Personal Weather Stations






























Interactive Weather Map
Tropical Storm Tracking
New forecast layout! Learn more

10-Day Weather Forecast

Advertisements
Track Severe Weather on mobile